sensor_id;sensor_type;location;lat;lon;timestamp;P1;durP1;ratioP1;P2;durP2;ratioP2
19645;SDS011;9971;52.446;13.452;2024-02-14T00:02:00;2.00;;;1.90;;
19645;SDS011;9971;52.446;13.452;2024-02-14T00:07:03;2.42;;;2.22;;
19645;SDS011;9971;52.446;13.452;2024-02-14T00:12:05;2.42;;;2.22;;
19645;SDS011;9971;52.446;13.452;2024-02-14T00:17:08;2.33;;;2.12;;
19645;SDS011;9971;52.446;13.452;2024-02-14T00:22:10;2.30;;;2.10;;
19645;SDS011;9971;52.446;13.452;2024-02-14T00:27:12;2.20;;;2.00;;
19645;SDS011;9971;52.446;13.452;2024-02-14T00:32:16;1.90;;;1.80;;
19645;SDS011;9971;52.446;13.452;2024-02-14T00:37:19;2.05;;;1.67;;
19645;SDS011;9971;52.446;13.452;2024-02-14T00:42:20;1.70;;;1.60;;
19645;SDS011;9971;52.446;13.452;2024-02-14T00:47:23;2.40;;;1.98;;
19645;SDS011;9971;52.446;13.452;2024-02-14T00:52:25;1.95;;;1.85;;
19645;SDS011;9971;52.446;13.452;2024-02-14T00:57:27;2.27;;;2.07;;
19645;SDS011;9971;52.446;13.452;2024-02-14T01:02:30;2.22;;;2.02;;
19645;SDS011;9971;52.446;13.452;2024-02-14T01:07:32;2.10;;;1.90;;
19645;SDS011;9971;52.446;13.452;2024-02-14T01:12:35;2.17;;;1.98;;
19645;SDS011;9971;52.446;13.452;2024-02-14T01:17:37;2.30;;;2.10;;
19645;SDS011;9971;52.446;13.452;2024-02-14T01:22:40;1.80;;;1.70;;
19645;SDS011;9971;52.446;13.452;2024-02-14T01:27:42;2.00;;;1.73;;
19645;SDS011;9971;52.446;13.452;2024-02-14T01:32:45;1.82;;;1.72;;
19645;SDS011;9971;52.446;13.452;2024-02-14T01:37:48;1.80;;;1.70;;
19645;SDS011;9971;52.446;13.452;2024-02-14T01:42:50;2.37;;;2.17;;
19645;SDS011;9971;52.446;13.452;2024-02-14T01:47:53;2.02;;;1.92;;
19645;SDS011;9971;52.446;13.452;2024-02-14T01:52:56;2.08;;;1.87;;
19645;SDS011;9971;52.446;13.452;2024-02-14T01:57:57;2.10;;;2.00;;
19645;SDS011;9971;52.446;13.452;2024-02-14T02:02:59;1.63;;;1.53;;
19645;SDS011;9971;52.446;13.452;2024-02-14T02:08:01;2.33;;;1.98;;
19645;SDS011;9971;52.446;13.452;2024-02-14T02:13:03;2.37;;;1.77;;
19645;SDS011;9971;52.446;13.452;2024-02-14T02:18:06;2.50;;;1.77;;
19645;SDS011;9971;52.446;13.452;2024-02-14T02:23:10;1.70;;;1.60;;
19645;SDS011;9971;52.446;13.452;2024-02-14T02:28:10;2.10;;;1.63;;
19645;SDS011;9971;52.446;13.452;2024-02-14T02:33:13;1.70;;;1.60;;
19645;SDS011;9971;52.446;13.452;2024-02-14T02:38:16;1.70;;;1.60;;
19645;SDS011;9971;52.446;13.452;2024-02-14T02:43:18;1.87;;;1.77;;
19645;SDS011;9971;52.446;13.452;2024-02-14T02:48:20;2.08;;;1.80;;
19645;SDS011;9971;52.446;13.452;2024-02-14T02:53:22;2.22;;;2.02;;
19645;SDS011;9971;52.446;13.452;2024-02-14T02:58:25;1.87;;;1.77;;
19645;SDS011;9971;52.446;13.452;2024-02-14T03:03:27;1.57;;;1.47;;
19645;SDS011;9971;52.446;13.452;2024-02-14T03:08:30;1.90;;;1.62;;
19645;SDS011;9971;52.446;13.452;2024-02-14T03:13:32;1.80;;;1.70;;
19645;SDS011;9971;52.446;13.452;2024-02-14T03:18:34;2.55;;;1.92;;
19645;SDS011;9971;52.446;13.452;2024-02-14T03:23:36;1.50;;;1.40;;
19645;SDS011;9971;52.446;13.452;2024-02-14T03:28:39;1.50;;;1.40;;
19645;SDS011;9971;52.446;13.452;2024-02-14T03:33:42;1.52;;;1.40;;
19645;SDS011;9971;52.446;13.452;2024-02-14T03:38:43;1.70;;;1.60;;
19645;SDS011;9971;52.446;13.452;2024-02-14T03:43:46;1.57;;;1.47;;
19645;SDS011;9971;52.446;13.452;2024-02-14T03:48:48;1.45;;;1.35;;
19645;SDS011;9971;52.446;13.452;2024-02-14T03:53:50;1.40;;;1.30;;
19645;SDS011;9971;52.446;13.452;2024-02-14T03:58:52;1.23;;;1.23;;
19645;SDS011;9971;52.446;13.452;2024-02-14T04:03:55;0.90;;;0.90;;
19645;SDS011;9971;52.446;13.452;2024-02-14T04:08:57;0.35;;;0.35;;
19645;SDS011;9971;52.446;13.452;2024-02-14T04:14:00;1.70;;;1.60;;
19645;SDS011;9971;52.446;13.452;2024-02-14T04:19:02;2.45;;;2.25;;
19645;SDS011;9971;52.446;13.452;2024-02-14T04:24:05;4.23;;;2.87;;
19645;SDS011;9971;52.446;13.452;2024-02-14T04:29:07;2.85;;;2.65;;
19645;SDS011;9971;52.446;13.452;2024-02-14T04:34:10;2.90;;;2.60;;
19645;SDS011;9971;52.446;13.452;2024-02-14T04:39:12;2.85;;;2.65;;
19645;SDS011;9971;52.446;13.452;2024-02-14T04:44:15;2.60;;;2.40;;
19645;SDS011;9971;52.446;13.452;2024-02-14T04:49:18;2.65;;;2.45;;
19645;SDS011;9971;52.446;13.452;2024-02-14T04:54:20;0.50;;;0.50;;
19645;SDS011;9971;52.446;13.452;2024-02-14T04:59:22;0.33;;;0.28;;
19645;SDS011;9971;52.446;13.452;2024-02-14T05:04:25;0.50;;;0.50;;
19645;SDS011;9971;52.446;13.452;2024-02-14T05:09:28;0.13;;;0.13;;
19645;SDS011;9971;52.446;13.452;2024-02-14T05:14:30;0.20;;;0.20;;
19645;SDS011;9971;52.446;13.452;2024-02-14T05:19:33;1.20;;;1.05;;
19645;SDS011;9971;52.446;13.452;2024-02-14T05:24:35;0.57;;;0.57;;
19645;SDS011;9971;52.446;13.452;2024-02-14T05:29:38;0.65;;;0.62;;
19645;SDS011;9971;52.446;13.452;2024-02-14T05:34:40;0.97;;;0.97;;
19645;SDS011;9971;52.446;13.452;2024-02-14T05:39:43;0.20;;;0.20;;
19645;SDS011;9971;52.446;13.452;2024-02-14T05:44:45;0.20;;;0.20;;
19645;SDS011;9971;52.446;13.452;2024-02-14T05:49:48;0.28;;;0.28;;
19645;SDS011;9971;52.446;13.452;2024-02-14T05:54:50;0.10;;;0.10;;
19645;SDS011;9971;52.446;13.452;2024-02-14T05:59:53;0.20;;;0.20;;
19645;SDS011;9971;52.446;13.452;2024-02-14T06:04:55;0.10;;;0.10;;
19645;SDS011;9971;52.446;13.452;2024-02-14T06:09:58;0.30;;;0.30;;
19645;SDS011;9971;52.446;13.452;2024-02-14T06:15:01;0.15;;;0.15;;
19645;SDS011;9971;52.446;13.452;2024-02-14T06:20:03;0.10;;;0.10;;
19645;SDS011;9971;52.446;13.452;2024-02-14T06:25:06;0.20;;;0.20;;
19645;SDS011;9971;52.446;13.452;2024-02-14T06:30:09;0.30;;;0.30;;
19645;SDS011;9971;52.446;13.452;2024-02-14T06:35:12;0.20;;;0.20;;
19645;SDS011;9971;52.446;13.452;2024-02-14T06:40:14;0.13;;;0.13;;
19645;SDS011;9971;52.446;13.452;2024-02-14T06:45:17;0.30;;;0.30;;
19645;SDS011;9971;52.446;13.452;2024-02-14T06:50:19;0.80;;;0.80;;
19645;SDS011;9971;52.446;13.452;2024-02-14T06:55:21;0.20;;;0.20;;
19645;SDS011;9971;52.446;13.452;2024-02-14T07:00:24;0.13;;;0.13;;
19645;SDS011;9971;52.446;13.452;2024-02-14T07:05:26;0.20;;;0.20;;
19645;SDS011;9971;52.446;13.452;2024-02-14T07:10:28;0.30;;;0.30;;
19645;SDS011;9971;52.446;13.452;2024-02-14T07:15:30;0.10;;;0.10;;
19645;SDS011;9971;52.446;13.452;2024-02-14T07:20:33;1.98;;;1.32;;
19645;SDS011;9971;52.446;13.452;2024-02-14T07:25:35;0.90;;;0.90;;
19645;SDS011;9971;52.446;13.452;2024-02-14T07:30:38;1.90;;;1.47;;
19645;SDS011;9971;52.446;13.452;2024-02-14T07:35:40;1.60;;;1.42;;
19645;SDS011;9971;52.446;13.452;2024-02-14T07:40:42;2.47;;;1.95;;
19645;SDS011;9971;52.446;13.452;2024-02-14T07:45:45;2.00;;;1.90;;
19645;SDS011;9971;52.446;13.452;2024-02-14T07:50:47;2.20;;;2.02;;
19645;SDS011;9971;52.446;13.452;2024-02-14T07:55:50;1.97;;;1.53;;
19645;SDS011;9971;52.446;13.452;2024-02-14T08:00:52;1.50;;;1.40;;
19645;SDS011;9971;52.446;13.452;2024-02-14T08:05:54;1.92;;;1.82;;
19645;SDS011;9971;52.446;13.452;2024-02-14T08:10:57;1.70;;;1.60;;
19645;SDS011;9971;52.446;13.452;2024-02-14T08:15:59;1.07;;;1.07;;
19645;SDS011;9971;52.446;13.452;2024-02-14T08:21:02;0.87;;;0.87;;
19645;SDS011;9971;52.446;13.452;2024-02-14T08:26:04;0.60;;;0.60;;
19645;SDS011;9971;52.446;13.452;2024-02-14T08:31:10;1.25;;;1.17;;
19645;SDS011;9971;52.446;13.452;2024-02-14T08:36:11;0.53;;;0.53;;
19645;SDS011;9971;52.446;13.452;2024-02-14T08:41:13;0.40;;;0.40;;
19645;SDS011;9971;52.446;13.452;2024-02-14T08:46:16;1.87;;;1.60;;
19645;SDS011;9971;52.446;13.452;2024-02-14T08:51:17;1.37;;;1.27;;
19645;SDS011;9971;52.446;13.452;2024-02-14T08:56:20;1.05;;;0.98;;
19645;SDS011;9971;52.446;13.452;2024-02-14T09:01:22;1.30;;;1.20;;
19645;SDS011;9971;52.446;13.452;2024-02-14T09:06:24;1.25;;;1.15;;
19645;SDS011;9971;52.446;13.452;2024-02-14T09:11:27;1.27;;;1.17;;
19645;SDS011;9971;52.446;13.452;2024-02-14T09:16:29;1.47;;;1.37;;
19645;SDS011;9971;52.446;13.452;2024-02-14T09:21:31;1.40;;;1.30;;
19645;SDS011;9971;52.446;13.452;2024-02-14T09:26:33;1.60;;;1.50;;
19645;SDS011;9971;52.446;13.452;2024-02-14T09:31:36;1.40;;;1.30;;
19645;SDS011;9971;52.446;13.452;2024-02-14T09:36:38;2.40;;;1.30;;
19645;SDS011;9971;52.446;13.452;2024-02-14T09:41:41;1.30;;;1.20;;
19645;SDS011;9971;52.446;13.452;2024-02-14T09:46:42;1.53;;;1.33;;
19645;SDS011;9971;52.446;13.452;2024-02-14T09:51:44;1.77;;;1.27;;
19645;SDS011;9971;52.446;13.452;2024-02-14T09:56:49;1.30;;;1.20;;
19645;SDS011;9971;52.446;13.452;2024-02-14T10:01:50;1.37;;;1.20;;
19645;SDS011;9971;52.446;13.452;2024-02-14T10:06:52;1.63;;;1.10;;
19645;SDS011;9971;52.446;13.452;2024-02-14T10:11:54;1.15;;;1.02;;
19645;SDS011;9971;52.446;13.452;2024-02-14T10:16:57;2.00;;;1.20;;
19645;SDS011;9971;52.446;13.452;2024-02-14T10:22:00;2.30;;;1.30;;
19645;SDS011;9971;52.446;13.452;2024-02-14T10:27:01;1.83;;;1.20;;
19645;SDS011;9971;52.446;13.452;2024-02-14T10:32:03;1.35;;;1.15;;
19645;SDS011;9971;52.446;13.452;2024-02-14T10:37:06;1.75;;;1.52;;
19645;SDS011;9971;52.446;13.452;2024-02-14T10:42:08;2.97;;;0.90;;
19645;SDS011;9971;52.446;13.452;2024-02-14T10:47:10;1.70;;;1.07;;
19645;SDS011;9971;52.446;13.452;2024-02-14T10:52:12;2.00;;;1.10;;
19645;SDS011;9971;52.446;13.452;2024-02-14T10:57:15;0.98;;;0.98;;
19645;SDS011;9971;52.446;13.452;2024-02-14T11:02:17;1.03;;;1.00;;
19645;SDS011;9971;52.446;13.452;2024-02-14T11:07:20;1.10;;;1.00;;
19645;SDS011;9971;52.446;13.452;2024-02-14T11:12:22;1.03;;;1.00;;
19645;SDS011;9971;52.446;13.452;2024-02-14T11:17:23;1.37;;;1.20;;
19645;SDS011;9971;52.446;13.452;2024-02-14T11:22:25;1.47;;;1.20;;
19645;SDS011;9971;52.446;13.452;2024-02-14T11:27:27;1.30;;;1.20;;
19645;SDS011;9971;52.446;13.452;2024-02-14T11:32:31;1.00;;;1.00;;
19645;SDS011;9971;52.446;13.452;2024-02-14T11:37:32;1.33;;;1.23;;
19645;SDS011;9971;52.446;13.452;2024-02-14T11:42:34;1.22;;;1.12;;
19645;SDS011;9971;52.446;13.452;2024-02-14T11:47:37;3.17;;;1.67;;
19645;SDS011;9971;52.446;13.452;2024-02-14T11:52:39;1.07;;;1.00;;
19645;SDS011;9971;52.446;13.452;2024-02-14T11:57:42;1.20;;;1.10;;
19645;SDS011;9971;52.446;13.452;2024-02-14T12:02:44;2.17;;;1.30;;
19645;SDS011;9971;52.446;13.452;2024-02-14T12:07:46;1.63;;;1.33;;
19645;SDS011;9971;52.446;13.452;2024-02-14T12:12:48;1.83;;;1.33;;
19645;SDS011;9971;52.446;13.452;2024-02-14T12:17:51;1.67;;;1.30;;
19645;SDS011;9971;52.446;13.452;2024-02-14T12:22:53;1.22;;;1.00;;
19645;SDS011;9971;52.446;13.452;2024-02-14T12:27:56;1.20;;;1.10;;
19645;SDS011;9971;52.446;13.452;2024-02-14T12:32:58;2.60;;;1.25;;
19645;SDS011;9971;52.446;13.452;2024-02-14T12:38:01;1.82;;;1.40;;
19645;SDS011;9971;52.446;13.452;2024-02-14T12:43:03;1.22;;;1.10;;
19645;SDS011;9971;52.446;13.452;2024-02-14T12:48:05;1.67;;;1.50;;
19645;SDS011;9971;52.446;13.452;2024-02-14T12:53:10;2.90;;;1.23;;
19645;SDS011;9971;52.446;13.452;2024-02-14T12:58:13;2.45;;;1.45;;
19645;SDS011;9971;52.446;13.452;2024-02-14T13:03:15;2.07;;;1.53;;
19645;SDS011;9971;52.446;13.452;2024-02-14T13:08:17;1.62;;;1.30;;
19645;SDS011;9971;52.446;13.452;2024-02-14T13:13:20;1.67;;;1.30;;
19645;SDS011;9971;52.446;13.452;2024-02-14T13:18:22;1.52;;;1.00;;
19645;SDS011;9971;52.446;13.452;2024-02-14T13:23:25;1.52;;;1.42;;
19645;SDS011;9971;52.446;13.452;2024-02-14T13:28:26;1.53;;;1.40;;
19645;SDS011;9971;52.446;13.452;2024-02-14T13:33:29;2.15;;;1.47;;
19645;SDS011;9971;52.446;13.452;2024-02-14T13:38:31;3.55;;;1.30;;
19645;SDS011;9971;52.446;13.452;2024-02-14T13:43:34;1.52;;;1.42;;
19645;SDS011;9971;52.446;13.452;2024-02-14T13:48:36;2.07;;;1.43;;
19645;SDS011;9971;52.446;13.452;2024-02-14T13:53:39;1.80;;;1.27;;
19645;SDS011;9971;52.446;13.452;2024-02-14T13:58:41;1.72;;;1.55;;
19645;SDS011;9971;52.446;13.452;2024-02-14T14:03:44;2.65;;;1.60;;
19645;SDS011;9971;52.446;13.452;2024-02-14T14:08:46;2.05;;;1.60;;
19645;SDS011;9971;52.446;13.452;2024-02-14T14:13:48;1.70;;;1.60;;
19645;SDS011;9971;52.446;13.452;2024-02-14T14:18:51;2.50;;;1.47;;
19645;SDS011;9971;52.446;13.452;2024-02-14T14:23:53;2.07;;;1.27;;
19645;SDS011;9971;52.446;13.452;2024-02-14T14:28:56;1.87;;;1.50;;
19645;SDS011;9971;52.446;13.452;2024-02-14T14:33:58;2.17;;;1.40;;
19645;SDS011;9971;52.446;13.452;2024-02-14T14:39:01;1.37;;;1.27;;
19645;SDS011;9971;52.446;13.452;2024-02-14T14:44:03;1.70;;;1.27;;
19645;SDS011;9971;52.446;13.452;2024-02-14T14:49:06;3.30;;;1.50;;
19645;SDS011;9971;52.446;13.452;2024-02-14T14:54:08;1.92;;;1.40;;
19645;SDS011;9971;52.446;13.452;2024-02-14T14:59:10;1.50;;;1.40;;
19645;SDS011;9971;52.446;13.452;2024-02-14T15:04:12;1.15;;;1.05;;
19645;SDS011;9971;52.446;13.452;2024-02-14T15:09:15;1.65;;;0.93;;
19645;SDS011;9971;52.446;13.452;2024-02-14T15:14:17;1.85;;;1.27;;
19645;SDS011;9971;52.446;13.452;2024-02-14T15:19:20;1.50;;;1.40;;
19645;SDS011;9971;52.446;13.452;2024-02-14T15:24:22;3.50;;;1.17;;
19645;SDS011;9971;52.446;13.452;2024-02-14T15:29:25;1.35;;;1.25;;
19645;SDS011;9971;52.446;13.452;2024-02-14T15:34:32;2.17;;;1.20;;
19645;SDS011;9971;52.446;13.452;2024-02-14T15:39:34;2.37;;;1.60;;
19645;SDS011;9971;52.446;13.452;2024-02-14T15:44:37;1.30;;;1.20;;
19645;SDS011;9971;52.446;13.452;2024-02-14T15:49:39;1.60;;;1.30;;
19645;SDS011;9971;52.446;13.452;2024-02-14T15:54:41;1.57;;;1.43;;
19645;SDS011;9971;52.446;13.452;2024-02-14T15:59:43;1.52;;;1.42;;
19645;SDS011;9971;52.446;13.452;2024-02-14T16:04:46;1.42;;;1.32;;
19645;SDS011;9971;52.446;13.452;2024-02-14T16:09:48;1.27;;;1.17;;
19645;SDS011;9971;52.446;13.452;2024-02-14T16:14:51;1.80;;;1.47;;
19645;SDS011;9971;52.446;13.452;2024-02-14T16:19:53;3.00;;;1.45;;
19645;SDS011;9971;52.446;13.452;2024-02-14T16:24:56;2.40;;;1.40;;
19645;SDS011;9971;52.446;13.452;2024-02-14T16:29:58;1.70;;;1.60;;
19645;SDS011;9971;52.446;13.452;2024-02-14T16:35:01;1.53;;;1.20;;
19645;SDS011;9971;52.446;13.452;2024-02-14T16:40:04;2.33;;;1.50;;
19645;SDS011;9971;52.446;13.452;2024-02-14T16:45:06;1.30;;;1.17;;
19645;SDS011;9971;52.446;13.452;2024-02-14T16:50:09;1.57;;;1.40;;
19645;SDS011;9971;52.446;13.452;2024-02-14T16:55:11;1.70;;;1.60;;
19645;SDS011;9971;52.446;13.452;2024-02-14T17:00:14;1.43;;;1.33;;
19645;SDS011;9971;52.446;13.452;2024-02-14T17:05:16;2.20;;;1.87;;
19645;SDS011;9971;52.446;13.452;2024-02-14T17:10:19;1.67;;;1.40;;
19645;SDS011;9971;52.446;13.452;2024-02-14T17:15:21;1.87;;;1.40;;
19645;SDS011;9971;52.446;13.452;2024-02-14T17:20:24;1.62;;;1.50;;
19645;SDS011;9971;52.446;13.452;2024-02-14T17:25:26;2.65;;;2.15;;
19645;SDS011;9971;52.446;13.452;2024-02-14T17:30:29;1.75;;;1.65;;
19645;SDS011;9971;52.446;13.452;2024-02-14T17:35:31;1.70;;;1.60;;
19645;SDS011;9971;52.446;13.452;2024-02-14T17:40:33;2.65;;;1.65;;
19645;SDS011;9971;52.446;13.452;2024-02-14T17:45:36;2.15;;;1.52;;
19645;SDS011;9971;52.446;13.452;2024-02-14T17:50:38;1.72;;;1.55;;
19645;SDS011;9971;52.446;13.452;2024-02-14T17:55:40;2.22;;;1.70;;
19645;SDS011;9971;52.446;13.452;2024-02-14T18:00:43;3.67;;;1.75;;
19645;SDS011;9971;52.446;13.452;2024-02-14T18:05:45;1.52;;;1.27;;
19645;SDS011;9971;52.446;13.452;2024-02-14T18:10:48;1.37;;;1.35;;
19645;SDS011;9971;52.446;13.452;2024-02-14T18:15:50;1.45;;;1.20;;
19645;SDS011;9971;52.446;13.452;2024-02-14T18:20:53;1.70;;;1.60;;
19645;SDS011;9971;52.446;13.452;2024-02-14T18:25:55;1.40;;;1.22;;
19645;SDS011;9971;52.446;13.452;2024-02-14T18:30:58;1.50;;;1.40;;
19645;SDS011;9971;52.446;13.452;2024-02-14T18:36:01;1.45;;;1.35;;
19645;SDS011;9971;52.446;13.452;2024-02-14T18:41:03;1.30;;;1.20;;
19645;SDS011;9971;52.446;13.452;2024-02-14T18:46:06;1.43;;;1.33;;
19645;SDS011;9971;52.446;13.452;2024-02-14T18:51:08;1.67;;;1.40;;
19645;SDS011;9971;52.446;13.452;2024-02-14T18:56:10;2.50;;;1.32;;
19645;SDS011;9971;52.446;13.452;2024-02-14T19:01:20;2.13;;;1.30;;
19645;SDS011;9971;52.446;13.452;2024-02-14T19:06:15;1.20;;;1.10;;
19645;SDS011;9971;52.446;13.452;2024-02-14T19:11:17;1.60;;;1.40;;
19645;SDS011;9971;52.446;13.452;2024-02-14T19:16:20;1.37;;;1.27;;
19645;SDS011;9971;52.446;13.452;2024-02-14T19:21:22;1.43;;;1.33;;
19645;SDS011;9971;52.446;13.452;2024-02-14T19:26:24;2.33;;;1.50;;
19645;SDS011;9971;52.446;13.452;2024-02-14T19:31:26;1.32;;;1.12;;
19645;SDS011;9971;52.446;13.452;2024-02-14T19:36:29;1.95;;;1.40;;
19645;SDS011;9971;52.446;13.452;2024-02-14T19:41:31;2.33;;;1.32;;
19645;SDS011;9971;52.446;13.452;2024-02-14T19:46:34;0.98;;;0.98;;
19645;SDS011;9971;52.446;13.452;2024-02-14T19:51:36;1.27;;;1.17;;
19645;SDS011;9971;52.446;13.452;2024-02-14T19:56:39;2.35;;;1.65;;
19645;SDS011;9971;52.446;13.452;2024-02-14T20:01:41;1.35;;;1.25;;
19645;SDS011;9971;52.446;13.452;2024-02-14T20:06:43;1.20;;;1.10;;
19645;SDS011;9971;52.446;13.452;2024-02-14T20:11:45;1.60;;;1.50;;
19645;SDS011;9971;52.446;13.452;2024-02-14T20:16:49;1.82;;;1.30;;
19645;SDS011;9971;52.446;13.452;2024-02-14T20:21:51;1.93;;;1.47;;
19645;SDS011;9971;52.446;13.452;2024-02-14T20:26:54;1.82;;;1.60;;
19645;SDS011;9971;52.446;13.452;2024-02-14T20:31:56;1.20;;;1.10;;
19645;SDS011;9971;52.446;13.452;2024-02-14T20:36:59;1.65;;;1.50;;
19645;SDS011;9971;52.446;13.452;2024-02-14T20:42:01;1.22;;;1.12;;
19645;SDS011;9971;52.446;13.452;2024-02-14T20:47:03;1.75;;;1.50;;
19645;SDS011;9971;52.446;13.452;2024-02-14T20:52:06;1.87;;;1.40;;
19645;SDS011;9971;52.446;13.452;2024-02-14T20:57:08;2.62;;;1.72;;
19645;SDS011;9971;52.446;13.452;2024-02-14T21:02:11;1.92;;;1.40;;
19645;SDS011;9971;52.446;13.452;2024-02-14T21:07:13;2.62;;;1.52;;
19645;SDS011;9971;52.446;13.452;2024-02-14T21:12:16;1.20;;;1.20;;
19645;SDS011;9971;52.446;13.452;2024-02-14T21:17:18;2.35;;;1.32;;
19645;SDS011;9971;52.446;13.452;2024-02-14T21:22:21;2.22;;;1.65;;
19645;SDS011;9971;52.446;13.452;2024-02-14T21:27:23;1.55;;;1.42;;
19645;SDS011;9971;52.446;13.452;2024-02-14T21:32:26;1.37;;;1.27;;
19645;SDS011;9971;52.446;13.452;2024-02-14T21:37:28;1.95;;;1.55;;
19645;SDS011;9971;52.446;13.452;2024-02-14T21:42:31;1.80;;;1.62;;
19645;SDS011;9971;52.446;13.452;2024-02-14T21:47:33;1.47;;;1.30;;
19645;SDS011;9971;52.446;13.452;2024-02-14T21:52:35;1.57;;;1.47;;
19645;SDS011;9971;52.446;13.452;2024-02-14T21:57:37;1.90;;;1.47;;
19645;SDS011;9971;52.446;13.452;2024-02-14T22:02:39;1.62;;;1.52;;
19645;SDS011;9971;52.446;13.452;2024-02-14T22:07:42;2.37;;;1.63;;
19645;SDS011;9971;52.446;13.452;2024-02-14T22:12:44;1.35;;;1.25;;
19645;SDS011;9971;52.446;13.452;2024-02-14T22:17:46;1.33;;;1.10;;
19645;SDS011;9971;52.446;13.452;2024-02-14T22:22:49;1.85;;;1.42;;
19645;SDS011;9971;52.446;13.452;2024-02-14T22:27:51;2.37;;;1.50;;
19645;SDS011;9971;52.446;13.452;2024-02-14T22:32:54;2.47;;;1.60;;
19645;SDS011;9971;52.446;13.452;2024-02-14T22:37:56;1.67;;;1.40;;
19645;SDS011;9971;52.446;13.452;2024-02-14T22:42:58;1.80;;;1.40;;
19645;SDS011;9971;52.446;13.452;2024-02-14T22:48:01;1.40;;;1.27;;
19645;SDS011;9971;52.446;13.452;2024-02-14T22:53:03;1.47;;;1.33;;
19645;SDS011;9971;52.446;13.452;2024-02-14T22:58:06;1.57;;;1.47;;
19645;SDS011;9971;52.446;13.452;2024-02-14T23:03:08;1.53;;;1.40;;
19645;SDS011;9971;52.446;13.452;2024-02-14T23:08:10;1.47;;;1.37;;
19645;SDS011;9971;52.446;13.452;2024-02-14T23:13:13;1.57;;;1.40;;
19645;SDS011;9971;52.446;13.452;2024-02-14T23:18:15;2.25;;;1.50;;
19645;SDS011;9971;52.446;13.452;2024-02-14T23:23:17;1.53;;;1.43;;
19645;SDS011;9971;52.446;13.452;2024-02-14T23:28:20;3.05;;;1.70;;
19645;SDS011;9971;52.446;13.452;2024-02-14T23:33:22;1.60;;;1.47;;
19645;SDS011;9971;52.446;13.452;2024-02-14T23:38:25;1.27;;;1.27;;
19645;SDS011;9971;52.446;13.452;2024-02-14T23:43:27;1.60;;;1.50;;
19645;SDS011;9971;52.446;13.452;2024-02-14T23:48:30;1.60;;;1.50;;
19645;SDS011;9971;52.446;13.452;2024-02-14T23:53:32;2.62;;;1.60;;
19645;SDS011;9971;52.446;13.452;2024-02-14T23:58:34;1.40;;;1.30;;
